Kacug, Russia
Current Conditions -  °F | °C
As of 7:00 AM on Sunday 26 Oct 2014 (Local Time) from UIII Reporting Station
Clear Clear  
Wind Chill: 21°   Ceiling: Unl
Heat Index: 27°   Visibility: 6mi
Dew Point: 14°   Wind: 4mph
Humidity: 59%   Direction: 140°SE
Pressure: 30.12"   Gusts: NA
Location:  53.97°N, 105.9°E
Report Text: UIII 252300Z 14002MPS CAVOK M03/M10 Q1020 NOSIG RMK QFE720/096030920260
Loading
Personal Weather Stations






























Interactive Weather Map
Tropical Storm Tracking
New forecast layout! Learn more

10-Day Weather Forecast

Advertisements
Track Severe Weather on mobile